sensor_id;sensor_type;location;lat;lon;timestamp;pressure;altitude;pressure_sealevel;temperature;humidity
43770;BME280;6597;52.218;9.882;2023-05-11T00:00:39;100567.84;;;12.57;100.00
43770;BME280;6597;52.218;9.882;2023-05-11T00:03:06;100562.41;;;12.60;100.00
43770;BME280;6597;52.218;9.882;2023-05-11T00:05:32;100557.09;;;12.61;100.00
43770;BME280;6597;52.218;9.882;2023-05-11T00:07:59;100560.50;;;12.63;100.00
43770;BME280;6597;52.218;9.882;2023-05-11T00:10:28;100561.28;;;12.65;100.00
43770;BME280;6597;52.218;9.882;2023-05-11T00:12:55;100562.19;;;12.64;100.00
43770;BME280;6597;52.218;9.882;2023-05-11T00:15:21;100563.78;;;12.68;100.00
43770;BME280;6597;52.218;9.882;2023-05-11T00:17:48;100565.44;;;12.71;100.00
43770;BME280;6597;52.218;9.882;2023-05-11T00:20:14;100561.94;;;12.70;100.00
43770;BME280;6597;52.218;9.882;2023-05-11T00:22:41;100567.22;;;12.70;100.00
43770;BME280;6597;52.218;9.882;2023-05-11T00:25:08;100556.69;;;12.70;100.00
43770;BME280;6597;52.218;9.882;2023-05-11T00:27:36;100565.34;;;12.72;100.00
43770;BME280;6597;52.218;9.882;2023-05-11T00:30:04;100566.22;;;12.73;100.00
43770;BME280;6597;52.218;9.882;2023-05-11T00:32:31;100563.50;;;12.74;100.00
43770;BME280;6597;52.218;9.882;2023-05-11T00:34:57;100571.31;;;12.76;100.00
43770;BME280;6597;52.218;9.882;2023-05-11T00:37:24;100560.88;;;12.74;100.00
43770;BME280;6597;52.218;9.882;2023-05-11T00:39:51;100564.34;;;12.75;100.00
43770;BME280;6597;52.218;9.882;2023-05-11T00:42:17;100563.56;;;12.73;100.00
43770;BME280;6597;52.218;9.882;2023-05-11T00:44:45;100568.84;;;12.73;100.00
43770;BME280;6597;52.218;9.882;2023-05-11T00:47:12;100563.56;;;12.73;100.00
43770;BME280;6597;52.218;9.882;2023-05-11T00:49:38;100564.44;;;12.73;100.00
43770;BME280;6597;52.218;9.882;2023-05-11T00:52:05;100566.22;;;12.73;100.00
43770;BME280;6597;52.218;9.882;2023-05-11T00:54:32;100560.09;;;12.72;100.00
43770;BME280;6597;52.218;9.882;2023-05-11T00:56:58;100565.34;;;12.72;100.00
43770;BME280;6597;52.218;9.882;2023-05-11T00:59:26;100561.88;;;12.72;100.00
43770;BME280;6597;52.218;9.882;2023-05-11T01:01:54;100558.31;;;12.73;100.00
43770;BME280;6597;52.218;9.882;2023-05-11T01:04:20;100555.69;;;12.73;100.00
43770;BME280;6597;52.218;9.882;2023-05-11T01:06:51;100557.38;;;12.74;100.00
43770;BME280;6597;52.218;9.882;2023-05-11T01:09:29;100569.63;;;12.75;100.00
43770;BME280;6597;52.218;9.882;2023-05-11T01:12:05;100563.44;;;12.76;100.00
43770;BME280;6597;52.218;9.882;2023-05-11T01:14:38;100566.06;;;12.76;100.00
43770;BME280;6597;52.218;9.882;2023-05-11T01:17:11;100561.66;;;12.76;100.00
43770;BME280;6597;52.218;9.882;2023-05-11T01:19:42;100567.69;;;12.78;100.00
43770;BME280;6597;52.218;9.882;2023-05-11T01:22:26;100566.78;;;12.80;100.00
43770;BME280;6597;52.218;9.882;2023-05-11T01:25:11;100570.19;;;12.82;100.00
43770;BME280;6597;52.218;9.882;2023-05-11T01:28:18;100560.50;;;12.82;100.00
43770;BME280;6597;52.218;9.882;2023-05-11T01:30:50;100568.47;;;12.81;100.00
43770;BME280;6597;52.218;9.882;2023-05-11T01:33:21;100565.84;;;12.81;100.00
43770;BME280;6597;52.218;9.882;2023-05-11T01:35:52;100574.66;;;12.80;100.00
43770;BME280;6597;52.218;9.882;2023-05-11T01:38:20;100564.22;;;12.78;100.00
43770;BME280;6597;52.218;9.882;2023-05-11T01:40:53;100566.00;;;12.77;100.00
43770;BME280;6597;52.218;9.882;2023-05-11T01:43:23;100568.69;;;12.76;100.00
43770;BME280;6597;52.218;9.882;2023-05-11T01:45:54;100571.41;;;12.74;100.00
43770;BME280;6597;52.218;9.882;2023-05-11T01:48:27;100566.13;;;12.74;100.00
43770;BME280;6597;52.218;9.882;2023-05-11T01:50:56;100561.88;;;12.72;100.00
43770;BME280;6597;52.218;9.882;2023-05-11T01:53:26;100565.44;;;12.71;100.00
43770;BME280;6597;52.218;9.882;2023-05-11T01:55:56;100574.19;;;12.71;100.00
43770;BME280;6597;52.218;9.882;2023-05-11T01:58:24;100572.47;;;12.70;100.00
43770;BME280;6597;52.218;9.882;2023-05-11T02:00:54;100568.06;;;12.71;100.00
43770;BME280;6597;52.218;9.882;2023-05-11T02:03:28;100569.84;;;12.70;100.00
43770;BME280;6597;52.218;9.882;2023-05-11T02:05:56;100574.19;;;12.71;100.00
43770;BME280;6597;52.218;9.882;2023-05-11T02:08:26;100569.84;;;12.70;100.00
43770;BME280;6597;52.218;9.882;2023-05-11T02:10:56;100569.84;;;12.70;100.00
43770;BME280;6597;52.218;9.882;2023-05-11T02:13:23;100570.69;;;12.71;100.00
43770;BME280;6597;52.218;9.882;2023-05-11T02:15:55;100567.22;;;12.70;100.00
43770;BME280;6597;52.218;9.882;2023-05-11T02:18:23;100573.41;;;12.69;100.00
43770;BME280;6597;52.218;9.882;2023-05-11T02:20:57;100573.41;;;12.69;100.00
43770;BME280;6597;52.218;9.882;2023-05-11T02:23:25;100566.28;;;12.71;100.00
43770;BME280;6597;52.218;9.882;2023-05-11T02:25:53;100571.56;;;12.71;100.00
43770;BME280;6597;52.218;9.882;2023-05-11T02:28:20;100572.41;;;12.72;100.00
43770;BME280;6597;52.218;9.882;2023-05-11T02:30:50;100573.31;;;12.71;100.00
43770;BME280;6597;52.218;9.882;2023-05-11T02:33:24;100581.22;;;12.71;100.00
43770;BME280;6597;52.218;9.882;2023-05-11T02:35:54;100569.06;;;12.68;100.00
43770;BME280;6597;52.218;9.882;2023-05-11T02:38:29;100576.97;;;12.68;100.00
43770;BME280;6597;52.218;9.882;2023-05-11T02:40:59;100581.31;;;12.69;100.00
43770;BME280;6597;52.218;9.882;2023-05-11T02:43:29;100579.59;;;12.68;100.00
43770;BME280;6597;52.218;9.882;2023-05-11T02:46:02;100579.59;;;12.68;100.00
43770;BME280;6597;52.218;9.882;2023-05-11T02:48:37;100578.53;;;12.72;100.00
43770;BME280;6597;52.218;9.882;2023-05-11T02:51:06;100575.97;;;12.71;100.00
43770;BME280;6597;52.218;9.882;2023-05-11T02:53:39;100576.03;;;12.69;100.00
43770;BME280;6597;52.218;9.882;2023-05-11T02:56:07;100580.38;;;12.70;100.00
43770;BME280;6597;52.218;9.882;2023-05-11T02:58:34;100577.75;;;12.70;100.00
43770;BME280;6597;52.218;9.882;2023-05-11T03:01:15;100572.41;;;12.72;100.00
43770;BME280;6597;52.218;9.882;2023-05-11T03:03:43;100578.53;;;12.72;100.00
43770;BME280;6597;52.218;9.882;2023-05-11T03:06:10;100575.97;;;12.71;100.00
43770;BME280;6597;52.218;9.882;2023-05-11T03:08:37;100578.59;;;12.71;100.00
43770;BME280;6597;52.218;9.882;2023-05-11T03:11:04;100583.78;;;12.72;100.00
43770;BME280;6597;52.218;9.882;2023-05-11T03:13:31;100584.66;;;12.73;100.00
43770;BME280;6597;52.218;9.882;2023-05-11T03:16:01;100584.66;;;12.73;100.00
43770;BME280;6597;52.218;9.882;2023-05-11T03:18:31;100582.72;;;12.76;100.00
43770;BME280;6597;52.218;9.882;2023-05-11T03:21:00;100583.56;;;12.77;100.00
43770;BME280;6597;52.218;9.882;2023-05-11T03:23:28;100581.78;;;12.77;100.00
43770;BME280;6597;52.218;9.882;2023-05-11T03:25:56;100578.22;;;12.78;100.00
43770;BME280;6597;52.218;9.882;2023-05-11T03:28:24;100582.56;;;12.80;100.00
43770;BME280;6597;52.218;9.882;2023-05-11T03:30:57;100576.53;;;12.77;100.00
43770;BME280;6597;52.218;9.882;2023-05-11T03:33:25;100579.16;;;12.77;100.00
43770;BME280;6597;52.218;9.882;2023-05-11T03:35:53;100583.50;;;12.78;100.00
43770;BME280;6597;52.218;9.882;2023-05-11T03:38:24;100578.22;;;12.78;100.00
43770;BME280;6597;52.218;9.882;2023-05-11T03:40:54;100583.50;;;12.78;100.00
43770;BME280;6597;52.218;9.882;2023-05-11T03:43:25;100574.97;;;12.73;100.00
43770;BME280;6597;52.218;9.882;2023-05-11T03:45:55;100575.97;;;12.71;100.00
43770;BME280;6597;52.218;9.882;2023-05-11T03:48:23;100573.41;;;12.69;100.00
43770;BME280;6597;52.218;9.882;2023-05-11T03:50:50;100575.09;;;12.70;100.00
43770;BME280;6597;52.218;9.882;2023-05-11T03:53:17;100567.22;;;12.70;100.00
43770;BME280;6597;52.218;9.882;2023-05-11T03:55:46;100571.56;;;12.71;100.00
43770;BME280;6597;52.218;9.882;2023-05-11T03:58:14;100574.19;;;12.71;100.00
43770;BME280;6597;52.218;9.882;2023-05-11T04:00:41;100577.75;;;12.70;100.00
43770;BME280;6597;52.218;9.882;2023-05-11T04:03:08;100573.50;;;12.66;100.00
43770;BME280;6597;52.218;9.882;2023-05-11T04:05:36;100570.94;;;12.65;100.00
43770;BME280;6597;52.218;9.882;2023-05-11T04:08:06;100573.59;;;12.65;100.00
43770;BME280;6597;52.218;9.882;2023-05-11T04:10:33;100570.19;;;12.63;100.00
43770;BME280;6597;52.218;9.882;2023-05-11T04:13:01;100573.66;;;12.63;100.00
43770;BME280;6597;52.218;9.882;2023-05-11T04:15:28;100570.94;;;12.65;100.00
43770;BME280;6597;52.218;9.882;2023-05-11T04:17:55;100573.66;;;12.63;100.00
43770;BME280;6597;52.218;9.882;2023-05-11T04:20:21;100575.28;;;12.66;100.00
43770;BME280;6597;52.218;9.882;2023-05-11T04:22:48;100577.06;;;12.65;100.00
43770;BME280;6597;52.218;9.882;2023-05-11T04:25:15;100578.00;;;12.64;100.00
43770;BME280;6597;52.218;9.882;2023-05-11T04:27:42;100572.81;;;12.63;100.00
43770;BME280;6597;52.218;9.882;2023-05-11T04:30:13;100577.06;;;12.65;100.00
43770;BME280;6597;52.218;9.882;2023-05-11T04:32:39;100577.00;;;12.67;100.00
43770;BME280;6597;52.218;9.882;2023-05-11T04:35:08;100574.44;;;12.65;100.00
43770;BME280;6597;52.218;9.882;2023-05-11T04:37:36;100570.88;;;12.66;100.00
43770;BME280;6597;52.218;9.882;2023-05-11T04:40:06;100577.94;;;12.66;100.00
43770;BME280;6597;52.218;9.882;2023-05-11T04:42:38;100575.59;;;12.60;100.00
43770;BME280;6597;52.218;9.882;2023-05-11T04:45:08;100579.16;;;12.59;100.00
43770;BME280;6597;52.218;9.882;2023-05-11T04:47:36;100579.22;;;12.57;100.00
43770;BME280;6597;52.218;9.882;2023-05-11T04:50:04;100580.22;;;12.55;100.00
43770;BME280;6597;52.218;9.882;2023-05-11T04:52:33;100582.84;;;12.55;100.00
43770;BME280;6597;52.218;9.882;2023-05-11T04:55:00;100579.56;;;12.50;100.00
43770;BME280;6597;52.218;9.882;2023-05-11T04:57:26;100591.09;;;12.47;100.00
43770;BME280;6597;52.218;9.882;2023-05-11T04:59:53;100581.34;;;12.49;100.00
43770;BME280;6597;52.218;9.882;2023-05-11T05:02:20;100589.19;;;12.51;100.00
43770;BME280;6597;52.218;9.882;2023-05-11T05:04:50;100588.34;;;12.50;100.00
43770;BME280;6597;52.218;9.882;2023-05-11T05:07:19;100590.03;;;12.51;100.00
43770;BME280;6597;52.218;9.882;2023-05-11T05:09:45;100589.03;;;12.54;100.00
43770;BME280;6597;52.218;9.882;2023-05-11T05:12:14;100593.38;;;12.55;100.00
43770;BME280;6597;52.218;9.882;2023-05-11T05:14:41;100594.31;;;12.54;100.00
43770;BME280;6597;52.218;9.882;2023-05-11T05:17:08;100596.09;;;12.53;100.00
43770;BME280;6597;52.218;9.882;2023-05-11T05:19:34;100601.56;;;12.49;100.00
43770;BME280;6597;52.218;9.882;2023-05-11T05:22:03;100599.00;;;12.47;100.00
43770;BME280;6597;52.218;9.882;2023-05-11T05:24:31;100598.22;;;12.45;100.00
43770;BME280;6597;52.218;9.882;2023-05-11T05:26:57;100603.56;;;12.43;100.00
43770;BME280;6597;52.218;9.882;2023-05-11T05:29:25;100599.28;;;12.41;100.00
43770;BME280;6597;52.218;9.882;2023-05-11T05:31:51;100601.22;;;12.37;100.00
43770;BME280;6597;52.218;9.882;2023-05-11T05:34:18;100604.81;;;12.35;100.00
43770;BME280;6597;52.218;9.882;2023-05-11T05:36:45;100610.03;;;12.36;100.00
43770;BME280;6597;52.218;9.882;2023-05-11T05:39:13;100612.66;;;12.36;100.00
43770;BME280;6597;52.218;9.882;2023-05-11T05:41:40;100610.13;;;12.33;100.00
43770;BME280;6597;52.218;9.882;2023-05-11T05:44:08;100603.91;;;12.36;100.00
43770;BME280;6597;52.218;9.882;2023-05-11T05:46:34;100616.19;;;12.35;100.00
43770;BME280;6597;52.218;9.882;2023-05-11T05:49:01;100615.28;;;12.36;100.00
43770;BME280;6597;52.218;9.882;2023-05-11T05:51:28;100623.91;;;12.40;100.00
43770;BME280;6597;52.218;9.882;2023-05-11T05:53:55;100622.34;;;12.36;100.00
43770;BME280;6597;52.218;9.882;2023-05-11T05:56:23;100625.00;;;12.34;100.00
43770;BME280;6597;52.218;9.882;2023-05-11T05:58:50;100623.28;;;12.33;100.00
43770;BME280;6597;52.218;9.882;2023-05-11T06:01:17;100619.81;;;12.33;100.00
43770;BME280;6597;52.218;9.882;2023-05-11T06:03:44;100626.00;;;12.32;100.00
43770;BME280;6597;52.218;9.882;2023-05-11T06:06:10;100627.69;;;12.33;100.00
43770;BME280;6597;52.218;9.882;2023-05-11T06:08:37;100627.59;;;12.36;100.00
43770;BME280;6597;52.218;9.882;2023-05-11T06:11:03;100633.72;;;12.36;100.00
43770;BME280;6597;52.218;9.882;2023-05-11T06:13:31;100626.84;;;12.32;100.00
43770;BME280;6597;52.218;9.882;2023-05-11T06:15:58;100632.25;;;12.29;100.00
43770;BME280;6597;52.218;9.882;2023-05-11T06:18:30;100628.56;;;12.33;100.00
43770;BME280;6597;52.218;9.882;2023-05-11T06:20:57;100629.31;;;12.37;100.00
43770;BME280;6597;52.218;9.882;2023-05-11T06:23:25;100635.28;;;12.40;100.00
43770;BME280;6597;52.218;9.882;2023-05-11T06:25:52;100630.75;;;12.44;100.00
43770;BME280;6597;52.218;9.882;2023-05-11T06:28:19;100636.78;;;12.46;100.00
43770;BME280;6597;52.218;9.882;2023-05-11T06:30:50;100633.09;;;12.50;100.00
43770;BME280;6597;52.218;9.882;2023-05-11T06:33:17;100629.53;;;12.51;100.00
43770;BME280;6597;52.218;9.882;2023-05-11T06:35:44;100632.09;;;12.53;100.00
43770;BME280;6597;52.218;9.882;2023-05-11T06:38:12;100632.16;;;12.51;100.00
43770;BME280;6597;52.218;9.882;2023-05-11T06:40:39;100627.53;;;12.56;100.00
43770;BME280;6597;52.218;9.882;2023-05-11T06:43:05;100627.31;;;12.61;100.00
43770;BME280;6597;52.218;9.882;2023-05-11T06:45:44;100628.25;;;12.60;100.00
43770;BME280;6597;52.218;9.882;2023-05-11T06:48:12;100621.00;;;12.65;100.00
43770;BME280;6597;52.218;9.882;2023-05-11T06:50:39;100629.81;;;12.64;100.00
43770;BME280;6597;52.218;9.882;2023-05-11T06:53:05;100620.91;;;12.66;100.00
43770;BME280;6597;52.218;9.882;2023-05-11T06:55:34;100632.06;;;12.73;100.00
43770;BME280;6597;52.218;9.882;2023-05-11T06:58:02;100628.56;;;12.72;100.00
43770;BME280;6597;52.218;9.882;2023-05-11T07:00:28;100629.28;;;12.76;100.00
43770;BME280;6597;52.218;9.882;2023-05-11T07:02:55;100627.63;;;12.73;100.00
43770;BME280;6597;52.218;9.882;2023-05-11T07:05:22;100630.22;;;12.75;100.00
43770;BME280;6597;52.218;9.882;2023-05-11T07:07:49;100618.97;;;12.71;100.00
43770;BME280;6597;52.218;9.882;2023-05-11T07:10:16;100638.19;;;12.73;100.00
43770;BME280;6597;52.218;9.882;2023-05-11T07:12:43;100638.75;;;12.80;100.00
43770;BME280;6597;52.218;9.882;2023-05-11T07:15:10;100634.34;;;12.81;100.00
43770;BME280;6597;52.218;9.882;2023-05-11T07:17:36;100631.06;;;12.75;100.00
43770;BME280;6597;52.218;9.882;2023-05-11T07:20:03;100629.91;;;12.81;100.00
43770;BME280;6597;52.218;9.882;2023-05-11T07:22:31;100639.44;;;12.84;100.00
43770;BME280;6597;52.218;9.882;2023-05-11T07:24:59;100632.25;;;12.87;100.00
43770;BME280;6597;52.218;9.882;2023-05-11T07:27:25;100634.03;;;12.87;100.00
43770;BME280;6597;52.218;9.882;2023-05-11T07:29:52;100634.03;;;12.87;100.00
43770;BME280;6597;52.218;9.882;2023-05-11T07:32:18;100636.03;;;12.82;100.00
43770;BME280;6597;52.218;9.882;2023-05-11T07:34:45;100639.25;;;12.88;100.00
43770;BME280;6597;52.218;9.882;2023-05-11T07:37:11;100638.09;;;12.94;100.00
43770;BME280;6597;52.218;9.882;2023-05-11T07:39:39;100638.94;;;12.94;100.00
43770;BME280;6597;52.218;9.882;2023-05-11T07:42:06;100630.13;;;12.95;100.00
43770;BME280;6597;52.218;9.882;2023-05-11T07:44:32;100635.47;;;12.94;100.00
43770;BME280;6597;52.218;9.882;2023-05-11T07:46:59;100630.03;;;12.97;100.00
43770;BME280;6597;52.218;9.882;2023-05-11T07:49:25;100630.03;;;12.97;100.00
43770;BME280;6597;52.218;9.882;2023-05-11T07:51:52;100637.16;;;12.95;100.00
43770;BME280;6597;52.218;9.882;2023-05-11T07:54:19;100638.88;;;12.96;100.00
43770;BME280;6597;52.218;9.882;2023-05-11T07:56:46;100640.50;;;12.98;100.00
43770;BME280;6597;52.218;9.882;2023-05-11T07:59:13;100639.66;;;12.98;100.00
43770;BME280;6597;52.218;9.882;2023-05-11T08:01:39;100640.50;;;12.98;100.00
43770;BME280;6597;52.218;9.882;2023-05-11T08:04:06;100641.09;;;13.05;100.00
43770;BME280;6597;52.218;9.882;2023-05-11T08:06:33;100641.03;;;13.06;100.00
43770;BME280;6597;52.218;9.882;2023-05-11T08:09:00;100647.16;;;13.07;100.00
43770;BME280;6597;52.218;9.882;2023-05-11T08:11:27;100643.88;;;13.02;100.00
43770;BME280;6597;52.218;9.882;2023-05-11T08:13:55;100644.72;;;13.02;100.00
43770;BME280;6597;52.218;9.882;2023-05-11T08:16:21;100650.09;;;13.01;100.00
43770;BME280;6597;52.218;9.882;2023-05-11T08:18:48;100644.81;;;13.01;100.00
43770;BME280;6597;52.218;9.882;2023-05-11T08:21:14;100644.84;;;12.99;100.00
43770;BME280;6597;52.218;9.882;2023-05-11T08:23:41;100656.25;;;13.00;100.00
43770;BME280;6597;52.218;9.882;2023-05-11T08:26:08;100651.63;;;13.05;100.00
43770;BME280;6597;52.218;9.882;2023-05-11T08:28:35;100652.44;;;13.07;100.00
43770;BME280;6597;52.218;9.882;2023-05-11T08:31:03;100649.63;;;13.10;100.00
43770;BME280;6597;52.218;9.882;2023-05-11T08:33:30;100651.13;;;13.16;100.00
43770;BME280;6597;52.218;9.882;2023-05-11T08:35:57;100650.00;;;13.21;100.00
43770;BME280;6597;52.218;9.882;2023-05-11T08:38:24;100643.19;;;13.17;100.00
43770;BME280;6597;52.218;9.882;2023-05-11T08:40:51;100642.38;;;13.15;100.00
43770;BME280;6597;52.218;9.882;2023-05-11T08:43:18;100648.72;;;13.11;100.00
43770;BME280;6597;52.218;9.882;2023-05-11T08:45:45;100646.84;;;13.13;100.00
43770;BME280;6597;52.218;9.882;2023-05-11T08:48:14;100653.75;;;13.16;100.00
43770;BME280;6597;52.218;9.882;2023-05-11T08:50:43;100646.06;;;13.11;100.00
43770;BME280;6597;52.218;9.882;2023-05-11T08:53:10;100649.41;;;13.15;100.00
43770;BME280;6597;52.218;9.882;2023-05-11T08:55:37;100654.56;;;13.18;100.00
43770;BME280;6597;52.218;9.882;2023-05-11T08:58:05;100649.16;;;13.21;100.00
43770;BME280;6597;52.218;9.882;2023-05-11T09:00:32;100643.88;;;13.21;100.00
43770;BME280;6597;52.218;9.882;2023-05-11T09:02:59;100646.44;;;13.22;100.00
43770;BME280;6597;52.218;9.882;2023-05-11T09:05:29;100655.13;;;13.24;100.00
43770;BME280;6597;52.218;9.882;2023-05-11T09:07:59;100655.44;;;13.18;100.00
43770;BME280;6597;52.218;9.882;2023-05-11T09:10:26;100650.88;;;13.22;100.00
43770;BME280;6597;52.218;9.882;2023-05-11T09:12:53;100651.88;;;13.19;100.00
43770;BME280;6597;52.218;9.882;2023-05-11T09:15:19;100654.69;;;13.15;100.00
43770;BME280;6597;52.218;9.882;2023-05-11T09:17:46;100650.41;;;13.12;100.00
43770;BME280;6597;52.218;9.882;2023-05-11T09:20:13;100651.09;;;13.17;100.00
43770;BME280;6597;52.218;9.882;2023-05-11T09:22:43;100646.28;;;13.25;100.00
43770;BME280;6597;52.218;9.882;2023-05-11T09:25:10;100646.38;;;13.24;100.00
43770;BME280;6597;52.218;9.882;2023-05-11T09:27:41;100641.16;;;13.22;100.00
43770;BME280;6597;52.218;9.882;2023-05-11T09:30:12;100641.81;;;13.27;100.00
43770;BME280;6597;52.218;9.882;2023-05-11T09:32:45;100644.03;;;13.36;100.00
43770;BME280;6597;52.218;9.882;2023-05-11T09:35:22;100637.75;;;13.39;100.00
43770;BME280;6597;52.218;9.882;2023-05-11T09:38:02;100636.97;;;13.37;100.00
43770;BME280;6597;52.218;9.882;2023-05-11T09:40:29;100649.09;;;13.22;100.00
43770;BME280;6597;52.218;9.882;2023-05-11T09:42:56;100645.22;;;13.29;100.00
43770;BME280;6597;52.218;9.882;2023-05-11T09:45:36;100647.16;;;13.26;100.00
43770;BME280;6597;52.218;9.882;2023-05-11T09:48:05;100641.72;;;13.29;100.00
43770;BME280;6597;52.218;9.882;2023-05-11T09:50:32;100642.72;;;13.26;100.00
43770;BME280;6597;52.218;9.882;2023-05-11T09:53:00;100648.94;;;13.25;100.00
43770;BME280;6597;52.218;9.882;2023-05-11T09:55:27;100641.38;;;13.36;100.00
43770;BME280;6597;52.218;9.882;2023-05-11T09:57:55;100646.84;;;13.32;100.00
43770;BME280;6597;52.218;9.882;2023-05-11T10:00:22;100640.03;;;13.28;100.00
43770;BME280;6597;52.218;9.882;2023-05-11T10:03:00;100638.91;;;13.33;100.00
43770;BME280;6597;52.218;9.882;2023-05-11T10:05:28;100647.34;;;13.40;100.00
43770;BME280;6597;52.218;9.882;2023-05-11T10:07:56;100647.59;;;13.35;100.00
43770;BME280;6597;52.218;9.882;2023-05-11T10:10:26;100641.03;;;13.25;100.00
43770;BME280;6597;52.218;9.882;2023-05-11T10:12:54;100643.81;;;13.22;100.00
43770;BME280;6597;52.218;9.882;2023-05-11T10:15:22;100642.09;;;13.21;100.00
43770;BME280;6597;52.218;9.882;2023-05-11T10:17:51;100646.53;;;13.21;100.00
43770;BME280;6597;52.218;9.882;2023-05-11T10:20:19;100645.22;;;13.29;100.00
43770;BME280;6597;52.218;9.882;2023-05-11T10:22:46;100644.50;;;13.26;100.00
43770;BME280;6597;52.218;9.882;2023-05-11T10:25:13;100628.06;;;13.21;100.00
43770;BME280;6597;52.218;9.882;2023-05-11T10:27:42;100637.38;;;13.28;100.00
43770;BME280;6597;52.218;9.882;2023-05-11T10:30:11;100635.38;;;13.33;100.00
43770;BME280;6597;52.218;9.882;2023-05-11T10:32:38;100631.63;;;13.38;100.00
43770;BME280;6597;52.218;9.882;2023-05-11T10:35:06;100624.81;;;13.33;100.00
43770;BME280;6597;52.218;9.882;2023-05-11T10:37:32;100631.63;;;13.38;100.00
43770;BME280;6597;52.218;9.882;2023-05-11T10:39:59;100626.03;;;13.45;100.00
43770;BME280;6597;52.218;9.882;2023-05-11T10:42:39;100631.47;;;13.42;100.00
43770;BME280;6597;52.218;9.882;2023-05-11T10:45:18;100629.22;;;13.34;100.00
43770;BME280;6597;52.218;9.882;2023-05-11T10:48:18;100633.41;;;13.19;100.00
43770;BME280;6597;52.218;9.882;2023-05-11T10:51:04;100638.03;;;13.14;100.00
43770;BME280;6597;52.218;9.882;2023-05-11T10:54:05;100633.41;;;13.19;100.00
43770;BME280;6597;52.218;9.882;2023-05-11T10:56:51;100634.75;;;13.28;100.00
43770;BME280;6597;52.218;9.882;2023-05-11T11:02:30;100627.13;;;13.22;100.00
43770;BME280;6597;52.218;9.882;2023-05-11T11:04:56;100625.97;;;13.27;100.00
43770;BME280;6597;52.218;9.882;2023-05-11T11:07:25;100629.25;;;13.32;100.00
43770;BME280;6597;52.218;9.882;2023-05-11T11:09:54;100630.53;;;13.43;100.00
43770;BME280;6597;52.218;9.882;2023-05-11T11:12:23;100630.38;;;13.46;100.00
43770;BME280;6597;52.218;9.882;2023-05-11T11:14:56;100630.00;;;13.53;100.00
43770;BME280;6597;52.218;9.882;2023-05-11T11:17:27;100631.00;;;13.51;100.00
43770;BME280;6597;52.218;9.882;2023-05-11T11:19:56;100630.38;;;13.46;100.00
43770;BME280;6597;52.218;9.882;2023-05-11T11:22:41;100632.63;;;13.36;100.00
43770;BME280;6597;52.218;9.882;2023-05-11T11:25:09;100639.53;;;13.20;100.00
43770;BME280;6597;52.218;9.882;2023-05-11T11:27:56;100641.88;;;13.26;100.00
43770;BME280;6597;52.218;9.882;2023-05-11T11:30:25;100635.69;;;13.27;100.00
43770;BME280;6597;52.218;9.882;2023-05-11T11:33:29;100634.34;;;13.18;100.00
43770;BME280;6597;52.218;9.882;2023-05-11T11:35:45;100640.66;;;13.14;100.00
43770;BME280;6597;52.218;9.882;2023-05-11T11:38:13;100634.84;;;13.07;100.00
43770;BME280;6597;52.218;9.882;2023-05-11T11:40:41;100636.47;;;13.10;100.00
43770;BME280;6597;52.218;9.882;2023-05-11T11:43:12;100635.97;;;13.21;100.00
43770;BME280;6597;52.218;9.882;2023-05-11T11:45:50;100637.69;;;13.22;100.00
43770;BME280;6597;52.218;9.882;2023-05-11T11:48:29;100638.69;;;13.19;100.00
43770;BME280;6597;52.218;9.882;2023-05-11T11:51:03;100637.09;;;13.15;100.00
43770;BME280;6597;52.218;9.882;2023-05-11T11:54:03;100636.13;;;13.18;100.00
43770;BME280;6597;52.218;9.882;2023-05-11T11:56:43;100645.84;;;13.16;100.00
43770;BME280;6597;52.218;9.882;2023-05-11T11:59:10;100638.16;;;13.11;100.00
43770;BME280;6597;52.218;9.882;2023-05-11T12:01:40;100634.59;;;13.12;100.00
43770;BME280;6597;52.218;9.882;2023-05-11T12:04:33;100637.75;;;13.20;100.00
43770;BME280;6597;52.218;9.882;2023-05-11T12:07:02;100635.91;;;13.22;100.00
43770;BME280;6597;52.218;9.882;2023-05-11T12:09:32;100632.88;;;13.30;100.00
43770;BME280;6597;52.218;9.882;2023-05-11T12:12:01;100643.34;;;13.31;100.00
43770;BME280;6597;52.218;9.882;2023-05-11T12:14:29;100631.75;;;13.35;100.00
43770;BME280;6597;52.218;9.882;2023-05-11T12:17:00;100630.59;;;13.41;100.00
43770;BME280;6597;52.218;9.882;2023-05-11T12:19:28;100631.53;;;13.40;100.00
43770;BME280;6597;52.218;9.882;2023-05-11T12:21:55;100620.56;;;13.30;100.00
43770;BME280;6597;52.218;9.882;2023-05-11T12:24:21;100622.19;;;13.33;100.00
43770;BME280;6597;52.218;9.882;2023-05-11T12:26:48;100623.25;;;13.48;100.00
43770;BME280;6597;52.218;9.882;2023-05-11T12:29:15;100625.56;;;13.54;100.00
43770;BME280;6597;52.218;9.882;2023-05-11T12:31:44;100625.50;;;13.55;100.00
43770;BME280;6597;52.218;9.882;2023-05-11T12:34:13;100623.88;;;13.53;100.00
43770;BME280;6597;52.218;9.882;2023-05-11T12:36:41;100624.41;;;13.59;100.00
43770;BME280;6597;52.218;9.882;2023-05-11T12:39:15;100620.56;;;13.66;100.00
43770;BME280;6597;52.218;9.882;2023-05-11T12:41:42;100619.94;;;13.79;100.00
43770;BME280;6597;52.218;9.882;2023-05-11T12:44:09;100619.31;;;13.91;100.00
43770;BME280;6597;52.218;9.882;2023-05-11T12:46:36;100619.78;;;13.99;100.00
43770;BME280;6597;52.218;9.882;2023-05-11T12:49:03;100615.38;;;13.99;100.00
43770;BME280;6597;52.218;9.882;2023-05-11T12:51:59;100619.22;;;14.10;100.00
43770;BME280;6597;52.218;9.882;2023-05-11T12:54:28;100623.66;;;14.09;100.00
43770;BME280;6597;52.218;9.882;2023-05-11T12:56:55;100611.03;;;13.98;100.00
43770;BME280;6597;52.218;9.882;2023-05-11T12:59:24;100600.22;;;13.86;100.00
43770;BME280;6597;52.218;9.882;2023-05-11T13:01:50;100608.22;;;13.84;100.00
43770;BME280;6597;52.218;9.882;2023-05-11T13:04:17;100600.38;;;13.83;100.00